Time;durP1;ratioP1;P1;durP2;ratioP2;P2;SDS_P1;SDS_P2;PMS_P1;PMS_P2;Temp;Humidity;BMP_temperature;BMP_pressure;BME280_temperature;BME280_humidity;BME280_pressure;Samples;Min_cycle;Max_cycle;Signal;HPM_P1;HPM_P2
2023/06/27 00:00:18;;;;;;;11.25;4.50;;;;;;;;;;2030934;29;20142;-92
2023/06/27 00:01:19;;;;;;;12.80;4.50;;;;;;;;;;2039193;29;20034;-92
2023/06/27 00:02:20;;;;;;;14.27;4.50;;;;;;;;;;2039984;29;20123;-92
2023/06/27 00:03:24;;;;;;;9.57;4.65;;;;;;;;;;2040096;29;20404;-91
2023/06/27 00:04:24;;;;;;;9.20;4.18;;;;;;;;;;2039790;29;20503;-91
2023/06/27 00:05:25;;;;;;;8.85;4.28;;;;;;;;;;2039996;29;20052;-91
2023/06/27 00:06:25;;;;;;;6.32;4.00;;;;;;;;;;2039820;29;20490;-90
2023/06/27 00:07:27;;;;;;;7.70;4.00;;;;;;;;;;2039412;29;20038;-91
2023/06/27 00:08:28;;;;;;;11.93;4.70;;;;;;;;;;2031499;29;20106;-91
2023/06/27 00:09:28;;;;;;;10.48;4.80;;;;;;;;;;2039241;29;20154;-91
2023/06/27 00:10:29;;;;;;;13.20;4.55;;;;;;;;;;2039987;29;20423;-91
2023/06/27 00:11:29;;;;;;;13.02;4.70;;;;;;;;;;2039294;29;20114;-91
2023/06/27 00:12:30;;;;;;;10.02;4.03;;;;;;;;;;2039189;29;20031;-91
2023/06/27 00:13:31;;;;;;;8.50;4.18;;;;;;;;;;2039689;29;20031;-91
2023/06/27 00:14:36;;;;;;;9.73;4.32;;;;;;;;;;2039860;29;20070;-92
2023/06/27 00:15:37;;;;;;;7.10;4.30;;;;;;;;;;2039067;29;20114;-91
2023/06/27 00:16:39;;;;;;;10.15;4.53;;;;;;;;;;2031547;29;20035;-92
2023/06/27 00:17:42;;;;;;;9.60;4.45;;;;;;;;;;2031488;29;20027;-91
2023/06/27 00:18:47;;;;;;;10.07;4.13;;;;;;;;;;2032312;29;20028;-90
2023/06/27 00:19:48;;;;;;;7.43;4.32;;;;;;;;;;2033474;29;20032;-91
2023/06/27 00:20:49;;;;;;;17.08;4.65;;;;;;;;;;2035074;29;20382;-91
2023/06/27 00:21:50;;;;;;;11.40;4.43;;;;;;;;;;2039344;29;20156;-91
2023/06/27 00:22:50;;;;;;;9.05;4.40;;;;;;;;;;2039298;29;20079;-91
2023/06/27 00:23:51;;;;;;;9.23;4.50;;;;;;;;;;2031407;29;20024;-92
2023/06/27 00:24:52;;;;;;;10.32;4.07;;;;;;;;;;2039399;29;20377;-91
2023/06/27 00:25:52;;;;;;;15.02;4.95;;;;;;;;;;2041607;29;20023;-89
2023/06/27 00:26:52;;;;;;;8.23;4.45;;;;;;;;;;2042463;29;20392;-91
2023/06/27 00:27:53;;;;;;;11.93;4.47;;;;;;;;;;2039731;29;20032;-92
2023/06/27 00:28:57;;;;;;;8.95;3.50;;;;;;;;;;2039458;29;20028;-91
2023/06/27 00:30:00;;;;;;;8.73;4.50;;;;;;;;;;2040301;29;20025;-92
2023/06/27 00:31:02;;;;;;;9.43;4.65;;;;;;;;;;2040183;29;20052;-91
2023/06/27 00:32:02;;;;;;;9.02;4.55;;;;;;;;;;2039602;29;20090;-91
2023/06/27 00:33:04;;;;;;;9.10;4.32;;;;;;;;;;2039528;29;20051;-92
2023/06/27 00:34:05;;;;;;;12.30;4.45;;;;;;;;;;2040354;29;20071;-92
2023/06/27 00:35:05;;;;;;;9.07;4.20;;;;;;;;;;2040260;29;20019;-92
2023/06/27 00:36:06;;;;;;;12.13;4.45;;;;;;;;;;2040656;29;20499;-91
2023/06/27 00:37:06;;;;;;;9.00;3.85;;;;;;;;;;2032841;29;20596;-92
2023/06/27 00:38:07;;;;;;;10.35;4.10;;;;;;;;;;2033015;29;20126;-92
2023/06/27 00:39:07;;;;;;;8.52;4.13;;;;;;;;;;2040526;29;20500;-92
2023/06/27 00:40:08;;;;;;;11.38;4.80;;;;;;;;;;2032779;29;20055;-90
2023/06/27 00:41:11;;;;;;;9.85;4.07;;;;;;;;;;2032896;29;20024;-90
2023/06/27 00:42:12;;;;;;;10.70;4.80;;;;;;;;;;2041015;29;20028;-91
2023/06/27 00:43:12;;;;;;;12.40;4.40;;;;;;;;;;2041420;29;20024;-91
2023/06/27 00:44:12;;;;;;;7.07;3.60;;;;;;;;;;2041524;29;20027;-91
2023/06/27 00:45:13;;;;;;;10.38;4.57;;;;;;;;;;2041039;29;20024;-91
2023/06/27 00:46:31;;;;;;;9.80;5.15;;;;;;;;;;2032861;29;20028;-89
2023/06/27 00:47:31;;;;;;;13.38;3.83;;;;;;;;;;2035190;29;20492;-91
2023/06/27 00:48:33;;;;;;;6.97;4.00;;;;;;;;;;2033189;29;20032;-92
2023/06/27 00:49:34;;;;;;;10.88;4.22;;;;;;;;;;2040994;29;20027;-92
2023/06/27 00:50:35;;;;;;;9.93;3.90;;;;;;;;;;2033094;29;20354;-92
2023/06/27 00:51:40;;;;;;;8.93;4.07;;;;;;;;;;2040676;29;20582;-91
2023/06/27 00:52:41;;;;;;;5.13;3.92;;;;;;;;;;2040500;29;20475;-91
2023/06/27 00:53:42;;;;;;;13.20;4.13;;;;;;;;;;2016297;29;20119;-90
2023/06/27 00:54:42;;;;;;;9.63;3.67;;;;;;;;;;2040434;29;20032;-90
2023/06/27 00:55:43;;;;;;;8.25;3.83;;;;;;;;;;2032685;29;20550;-92
2023/06/27 00:56:45;;;;;;;9.00;4.55;;;;;;;;;;2032864;29;20064;-92
2023/06/27 00:57:48;;;;;;;10.05;4.15;;;;;;;;;;2032957;29;20028;-91
2023/06/27 00:58:48;;;;;;;6.75;3.92;;;;;;;;;;2032705;29;20032;-92
2023/06/27 00:59:50;;;;;;;9.18;4.22;;;;;;;;;;2033025;29;20471;-91
2023/06/27 01:00:50;;;;;;;10.77;4.47;;;;;;;;;;2040397;29;20106;-91
2023/06/27 01:01:51;;;;;;;11.15;4.43;;;;;;;;;;2032651;29;20040;-92
2023/06/27 01:02:51;;;;;;;9.38;4.55;;;;;;;;;;2032935;29;20047;-91
2023/06/27 01:03:52;;;;;;;10.40;5.10;;;;;;;;;;2040567;29;20440;-92
2023/06/27 01:04:53;;;;;;;9.70;4.55;;;;;;;;;;2032497;29;20034;-91
2023/06/27 01:05:54;;;;;;;7.30;4.05;;;;;;;;;;2032544;29;20032;-92
2023/06/27 01:07:15;;;;;;;10.95;4.55;;;;;;;;;;2040603;29;20051;-92
2023/06/27 01:08:29;;;;;;;;;;;;;;;;;;2041132;29;20036;-92
2023/06/27 01:09:36;;;;;;;11.32;4.18;;;;;;;;;;2044401;29;20401;-92
2023/06/27 01:10:39;;;;;;;10.43;4.28;;;;;;;;;;2048142;29;20032;-91
2023/06/27 01:11:46;;;;;;;10.05;4.57;;;;;;;;;;2042198;29;20032;-91
2023/06/27 01:13:00;;;;;;;9.88;4.35;;;;;;;;;;2050448;28;20088;-93
2023/06/27 01:14:03;;;;;;;12.23;4.72;;;;;;;;;;2051419;28;20222;-90
2023/06/27 01:15:06;;;;;;;10.63;4.47;;;;;;;;;;2050913;28;20036;-91
2023/06/27 01:16:08;;;;;;;11.07;4.32;;;;;;;;;;2042235;29;20020;-91
2023/06/27 01:17:10;;;;;;;9.38;4.47;;;;;;;;;;2041595;29;20055;-91
2023/06/27 01:18:14;;;;;;;15.82;5.80;;;;;;;;;;2039303;29;20031;-92
2023/06/27 01:19:19;;;;;;;6.75;3.88;;;;;;;;;;2035375;29;20174;-93
2023/06/27 01:20:20;;;;;;;8.20;4.03;;;;;;;;;;2033866;29;20096;-92
2023/06/27 01:21:28;;;;;;;10.82;3.78;;;;;;;;;;2041479;29;20031;-92
2023/06/27 01:22:36;;;;;;;10.23;4.28;;;;;;;;;;2044898;29;20140;-92
2023/06/27 01:23:44;;;;;;;11.35;4.10;;;;;;;;;;2035015;29;20040;-92
2023/06/27 01:24:46;;;;;;;11.43;4.00;;;;;;;;;;2040966;29;20122;-92
2023/06/27 01:25:46;;;;;;;14.57;4.57;;;;;;;;;;2041288;29;20027;-92
2023/06/27 01:26:47;;;;;;;10.75;5.32;;;;;;;;;;2045143;29;20055;-93
2023/06/27 01:27:48;;;;;;;10.75;4.13;;;;;;;;;;2049407;29;20016;-92
2023/06/27 01:28:49;;;;;;;10.20;4.60;;;;;;;;;;2050230;29;20016;-92
2023/06/27 01:29:50;;;;;;;11.90;3.88;;;;;;;;;;2042387;29;20039;-92
2023/06/27 01:30:50;;;;;;;9.70;3.80;;;;;;;;;;2050098;28;20042;-92
2023/06/27 01:32:03;;;;;;;15.35;5.85;;;;;;;;;;2049048;29;20056;-92
2023/06/27 01:33:23;;;;;;;11.80;4.05;;;;;;;;;;2049260;29;20115;-92
2023/06/27 01:34:39;;;;;;;13.00;3.75;;;;;;;;;;2049008;29;20074;-92
2023/06/27 01:35:51;;;;;;;6.57;3.55;;;;;;;;;;2049154;29;20115;-92
2023/06/27 01:37:00;;;;;;;8.25;4.00;;;;;;;;;;2044800;29;20028;-92
2023/06/27 01:38:10;;;;;;;10.60;3.55;;;;;;;;;;2034827;29;20119;-93
2023/06/27 01:39:18;;;;;;;13.20;4.20;;;;;;;;;;2034307;29;20042;-92
2023/06/27 01:40:23;;;;;;;11.73;4.28;;;;;;;;;;2041472;29;20039;-93
2023/06/27 01:41:27;;;;;;;10.63;3.70;;;;;;;;;;2041228;29;20051;-92
2023/06/27 01:42:34;;;;;;;14.45;4.13;;;;;;;;;;2033823;29;20445;-92
2023/06/27 01:43:36;;;;;;;14.43;5.05;;;;;;;;;;2034307;29;20370;-93
2023/06/27 01:44:38;;;;;;;14.65;4.40;;;;;;;;;;2040921;29;20102;-93
2023/06/27 01:45:40;;;;;;;13.63;4.60;;;;;;;;;;2040444;29;20138;-92
2023/06/27 01:46:42;;;;;;;11.57;4.10;;;;;;;;;;2040255;29;20066;-93
2023/06/27 01:47:43;;;;;;;10.18;3.88;;;;;;;;;;2040855;29;20028;-91
2023/06/27 01:48:46;;;;;;;14.95;4.82;;;;;;;;;;2040998;29;20042;-91
2023/06/27 01:49:46;;;;;;;10.60;4.03;;;;;;;;;;2040308;29;20035;-91
2023/06/27 01:50:47;;;;;;;12.73;4.65;;;;;;;;;;2040663;29;20130;-90
2023/06/27 01:51:47;;;;;;;12.65;4.13;;;;;;;;;;2040498;29;20451;-91
2023/06/27 01:52:48;;;;;;;11.00;4.00;;;;;;;;;;2040486;29;20036;-91
2023/06/27 01:53:49;;;;;;;7.35;3.78;;;;;;;;;;2041212;29;20467;-91
2023/06/27 01:54:49;;;;;;;13.90;4.32;;;;;;;;;;2040382;29;20032;-92
2023/06/27 01:55:50;;;;;;;12.52;4.30;;;;;;;;;;2040525;29;20502;-91
2023/06/27 01:56:53;;;;;;;12.13;4.45;;;;;;;;;;2041244;29;20031;-92
2023/06/27 01:57:53;;;;;;;7.63;3.85;;;;;;;;;;2040427;29;20478;-91
2023/06/27 01:58:54;;;;;;;12.85;4.22;;;;;;;;;;2040166;29;20027;-91
2023/06/27 01:59:55;;;;;;;13.88;4.68;;;;;;;;;;2040183;29;20441;-91
2023/06/27 02:00:58;;;;;;;13.52;4.07;;;;;;;;;;2033037;29;20040;-90
2023/06/27 02:02:00;;;;;;;8.98;3.80;;;;;;;;;;2042375;29;20207;-89
2023/06/27 02:03:01;;;;;;;13.88;4.40;;;;;;;;;;2041059;29;20039;-91
2023/06/27 02:04:03;;;;;;;11.68;3.85;;;;;;;;;;2040783;29;20107;-90
2023/06/27 02:05:04;;;;;;;10.27;4.32;;;;;;;;;;2040241;29;20157;-90
2023/06/27 02:06:04;;;;;;;11.02;4.20;;;;;;;;;;2040202;29;20083;-89
2023/06/27 02:07:05;;;;;;;12.00;4.00;;;;;;;;;;2040501;29;20155;-91
2023/06/27 02:08:06;;;;;;;14.85;5.03;;;;;;;;;;2040388;29;20547;-90
2023/06/27 02:09:07;;;;;;;15.05;4.03;;;;;;;;;;2040060;29;20016;-91
2023/06/27 02:10:08;;;;;;;11.27;4.18;;;;;;;;;;2040637;29;20213;-91
2023/06/27 02:11:08;;;;;;;11.98;4.10;;;;;;;;;;2040902;29;20020;-90
2023/06/27 02:12:11;;;;;;;16.27;4.78;;;;;;;;;;2040560;29;20055;-93
2023/06/27 02:13:12;;;;;;;10.82;3.97;;;;;;;;;;2040768;29;20087;-92
2023/06/27 02:14:13;;;;;;;8.23;4.07;;;;;;;;;;2040743;29;20473;-92
2023/06/27 02:15:14;;;;;;;9.48;4.35;;;;;;;;;;2041574;29;20054;-92
2023/06/27 02:16:15;;;;;;;12.50;4.65;;;;;;;;;;2041176;29;20027;-90
2023/06/27 02:17:15;;;;;;;8.65;4.28;;;;;;;;;;2040426;29;20507;-92
2023/06/27 02:18:16;;;;;;;16.75;4.40;;;;;;;;;;2032766;29;20040;-92
2023/06/27 02:19:16;;;;;;;14.95;5.07;;;;;;;;;;2040912;29;20083;-91
2023/06/27 02:20:20;;;;;;;18.23;7.03;;;;;;;;;;2041225;29;20034;-91
2023/06/27 02:21:20;;;;;;;12.60;5.00;;;;;;;;;;2041042;28;20031;-91
2023/06/27 02:22:20;;;;;;;10.32;4.10;;;;;;;;;;2040033;29;20107;-91
2023/06/27 02:23:21;;;;;;;13.23;4.28;;;;;;;;;;2040518;29;20027;-91
2023/06/27 02:24:21;;;;;;;13.60;4.55;;;;;;;;;;2040403;29;20036;-92
2023/06/27 02:25:22;;;;;;;12.00;4.07;;;;;;;;;;2040427;29;20031;-91
2023/06/27 02:26:23;;;;;;;11.27;4.82;;;;;;;;;;2041119;29;20023;-90
2023/06/27 02:27:24;;;;;;;10.70;4.20;;;;;;;;;;2040952;29;20038;-90
2023/06/27 02:28:25;;;;;;;10.90;4.85;;;;;;;;;;2040936;29;20111;-91
2023/06/27 02:29:25;;;;;;;17.35;5.45;;;;;;;;;;2039991;29;20036;-91
2023/06/27 02:30:26;;;;;;;15.48;4.93;;;;;;;;;;2032187;29;20023;-91
2023/06/27 02:31:26;;;;;;;12.65;4.60;;;;;;;;;;2039977;29;20024;-91
2023/06/27 02:32:27;;;;;;;12.68;6.32;;;;;;;;;;2040503;29;20198;-90
2023/06/27 02:33:27;;;;;;;16.85;4.95;;;;;;;;;;2040686;29;20024;-91
2023/06/27 02:34:28;;;;;;;9.00;4.43;;;;;;;;;;2039939;29;20048;-91
2023/06/27 02:35:29;;;;;;;12.95;4.93;;;;;;;;;;2039823;29;20087;-90
2023/06/27 02:36:29;;;;;;;12.45;5.05;;;;;;;;;;2040867;29;20115;-91
2023/06/27 02:37:30;;;;;;;12.48;5.05;;;;;;;;;;2039646;29;20032;-91
2023/06/27 02:38:30;;;;;;;15.45;5.50;;;;;;;;;;2031771;29;20066;-92
2023/06/27 02:39:31;;;;;;;12.00;4.30;;;;;;;;;;2040058;29;20035;-91
2023/06/27 02:40:31;;;;;;;17.45;6.40;;;;;;;;;;2039519;29;20154;-91
2023/06/27 02:41:34;;;;;;;13.77;4.90;;;;;;;;;;2031746;29;20065;-92
2023/06/27 02:42:34;;;;;;;14.65;4.80;;;;;;;;;;2032034;29;20070;-92
2023/06/27 02:43:35;;;;;;;13.98;5.05;;;;;;;;;;2039575;29;20408;-92
2023/06/27 02:44:36;;;;;;;9.93;4.80;;;;;;;;;;2040083;29;20035;-91
2023/06/27 02:45:36;;;;;;;12.30;4.57;;;;;;;;;;2032037;29;20032;-92
2023/06/27 02:46:38;;;;;;;11.80;5.32;;;;;;;;;;2031609;29;20477;-91
2023/06/27 02:47:39;;;;;;;11.00;4.40;;;;;;;;;;2039846;29;20534;-93
2023/06/27 02:48:39;;;;;;;11.60;4.22;;;;;;;;;;2040263;29;20027;-92
2023/06/27 02:49:41;;;;;;;13.35;5.80;;;;;;;;;;2041940;29;20083;-91
2023/06/27 02:50:46;;;;;;;11.25;4.72;;;;;;;;;;2041819;29;20272;-90
2023/06/27 02:51:46;;;;;;;14.77;4.95;;;;;;;;;;2040113;29;20035;-91
2023/06/27 02:52:46;;;;;;;9.82;4.43;;;;;;;;;;2039801;29;20036;-91
2023/06/27 02:53:47;;;;;;;15.18;4.82;;;;;;;;;;2039812;29;20031;-91
2023/06/27 02:54:48;;;;;;;12.38;4.93;;;;;;;;;;2031978;29;20032;-91
2023/06/27 02:55:49;;;;;;;12.75;4.95;;;;;;;;;;2031974;29;20035;-90
2023/06/27 02:56:50;;;;;;;16.25;5.00;;;;;;;;;;2032301;29;20123;-90
2023/06/27 02:57:51;;;;;;;17.65;6.03;;;;;;;;;;2031816;29;20122;-92
2023/06/27 02:58:51;;;;;;;14.75;5.07;;;;;;;;;;2032057;29;20032;-92
2023/06/27 02:59:52;;;;;;;13.52;4.93;;;;;;;;;;2032114;29;20039;-91
2023/06/27 03:00:52;;;;;;;16.88;5.40;;;;;;;;;;2031593;29;20073;-92
2023/06/27 03:01:53;;;;;;;14.45;4.78;;;;;;;;;;2031913;29;20028;-92
2023/06/27 03:02:53;;;;;;;11.95;4.85;;;;;;;;;;2031828;29;20460;-92
2023/06/27 03:03:54;;;;;;;15.05;5.07;;;;;;;;;;2039960;29;20108;-92
2023/06/27 03:04:54;;;;;;;17.05;5.40;;;;;;;;;;2040496;29;20480;-92
2023/06/27 03:05:55;;;;;;;13.85;4.90;;;;;;;;;;2039984;29;20091;-91
2023/06/27 03:06:56;;;;;;;15.77;4.60;;;;;;;;;;2031834;29;20036;-92
2023/06/27 03:07:58;;;;;;;13.70;4.53;;;;;;;;;;2031982;29;20492;-92
2023/06/27 03:08:59;;;;;;;13.75;4.50;;;;;;;;;;2039607;29;20035;-92
2023/06/27 03:09:59;;;;;;;17.08;4.70;;;;;;;;;;2039736;29;20531;-91
2023/06/27 03:11:00;;;;;;;13.45;4.63;;;;;;;;;;2039390;29;20035;-92
2023/06/27 03:12:03;;;;;;;17.10;5.40;;;;;;;;;;2039524;29;20032;-91
2023/06/27 03:13:04;;;;;;;14.10;5.15;;;;;;;;;;2039828;29;20024;-91
2023/06/27 03:14:04;;;;;;;11.43;4.53;;;;;;;;;;2040461;29;20028;-92
2023/06/27 03:15:05;;;;;;;11.55;4.65;;;;;;;;;;2040298;29;20019;-92
2023/06/27 03:16:06;;;;;;;16.77;4.57;;;;;;;;;;2040006;29;20031;-90
2023/06/27 03:17:06;;;;;;;15.20;5.47;;;;;;;;;;2039986;29;20035;-90
2023/06/27 03:18:07;;;;;;;18.83;4.70;;;;;;;;;;2040643;29;20023;-90
2023/06/27 03:19:07;;;;;;;12.63;4.68;;;;;;;;;;2039594;29;20118;-91
2023/06/27 03:20:08;;;;;;;11.97;4.60;;;;;;;;;;1683448;29;10271238;-92
2023/06/27 03:21:09;;;;;;;12.85;4.43;;;;;;;;;;2039689;29;20299;-91
2023/06/27 03:22:10;;;;;;;19.27;4.60;;;;;;;;;;2040452;29;20016;-91
2023/06/27 03:23:10;;;;;;;15.45;4.97;;;;;;;;;;2040371;29;20027;-89
2023/06/27 03:24:11;;;;;;;12.15;4.68;;;;;;;;;;2039497;29;20055;-91
2023/06/27 03:25:11;;;;;;;15.27;5.20;;;;;;;;;;2031654;29;20210;-91
2023/06/27 03:26:12;;;;;;;11.68;4.90;;;;;;;;;;2031971;29;20020;-92
2023/06/27 03:27:13;;;;;;;10.90;4.82;;;;;;;;;;2031864;29;20083;-91
2023/06/27 03:28:13;;;;;;;14.45;5.30;;;;;;;;;;2031526;29;20047;-91
2023/06/27 03:29:14;;;;;;;12.50;5.28;;;;;;;;;;2031517;29;20063;-92
2023/06/27 03:30:14;;;;;;;19.08;4.93;;;;;;;;;;2039537;29;20028;-92
2023/06/27 03:31:15;;;;;;;12.07;5.57;;;;;;;;;;2039725;29;20480;-90
2023/06/27 03:32:15;;;;;;;15.32;5.18;;;;;;;;;;2031716;29;20070;-91
2023/06/27 03:33:16;;;;;;;9.23;4.90;;;;;;;;;;2031731;29;20425;-91
2023/06/27 03:34:17;;;;;;;10.55;4.93;;;;;;;;;;2039556;29;20035;-90
2023/06/27 03:35:17;;;;;;;12.52;4.55;;;;;;;;;;2039351;29;20503;-90
2023/06/27 03:36:18;;;;;;;14.35;5.07;;;;;;;;;;2031806;29;20432;-90
2023/06/27 03:37:19;;;;;;;11.82;5.03;;;;;;;;;;2040039;29;20103;-89
2023/06/27 03:38:19;;;;;;;13.93;5.40;;;;;;;;;;2048888;28;20044;-89
2023/06/27 03:39:20;;;;;;;11.48;4.85;;;;;;;;;;2049054;29;20030;-91
2023/06/27 03:40:20;;;;;;;17.65;5.80;;;;;;;;;;2049509;28;20042;-90
2023/06/27 03:41:21;;;;;;;12.40;5.35;;;;;;;;;;2050150;28;20024;-91
2023/06/27 03:42:22;;;;;;;14.77;5.70;;;;;;;;;;2044862;29;20020;-90
2023/06/27 03:43:24;;;;;;;20.88;5.55;;;;;;;;;;2032446;29;20088;-90
2023/06/27 03:44:24;;;;;;;16.05;5.35;;;;;;;;;;2040025;29;20146;-90
2023/06/27 03:45:25;;;;;;;15.45;5.15;;;;;;;;;;2040251;29;20559;-90
2023/06/27 03:46:25;;;;;;;12.52;5.45;;;;;;;;;;2040425;29;20024;-90
2023/06/27 03:47:29;;;;;;;13.77;5.13;;;;;;;;;;2040264;29;20023;-91
2023/06/27 03:48:30;;;;;;;17.67;5.63;;;;;;;;;;2041476;29;20023;-94
2023/06/27 03:49:31;;;;;;;11.70;4.90;;;;;;;;;;2033599;29;20041;-96
2023/06/27 03:50:32;;;;;;;16.52;5.00;;;;;;;;;;2033879;29;20040;-96
2023/06/27 03:51:33;;;;;;;13.00;5.30;;;;;;;;;;2033362;29;20024;-96
2023/06/27 03:52:33;;;;;;;16.23;5.50;;;;;;;;;;2025294;29;20032;-96
2023/06/27 03:53:40;;;;;;;14.44;4.52;;;;;;;;;;1893101;29;10339070;-96
2023/06/27 03:54:42;;;;;;;12.88;5.53;;;;;;;;;;2035306;28;20268;-95
2023/06/27 03:55:43;;;;;;;10.25;4.85;;;;;;;;;;2042687;29;20056;-95
2023/06/27 03:56:43;;;;;;;15.48;4.43;;;;;;;;;;2042711;29;20043;-94
2023/06/27 03:57:44;;;;;;;18.65;6.20;;;;;;;;;;2042728;29;20017;-95
2023/06/27 03:58:44;;;;;;;12.27;5.45;;;;;;;;;;2042536;29;20044;-95
2023/06/27 03:59:45;;;;;;;18.95;5.47;;;;;;;;;;2042566;29;20029;-94
2023/06/27 04:00:45;;;;;;;11.38;5.30;;;;;;;;;;2034239;29;20032;-96
2023/06/27 04:01:46;;;;;;;16.77;5.32;;;;;;;;;;2041499;29;20491;-94
2023/06/27 04:02:47;;;;;;;13.75;5.30;;;;;;;;;;2033872;29;20043;-94
2023/06/27 04:03:47;;;;;;;14.50;4.97;;;;;;;;;;2033178;29;20118;-94
2023/06/27 04:04:48;;;;;;;14.05;5.63;;;;;;;;;;2033002;29;20028;-96
2023/06/27 04:05:48;;;;;;;14.13;5.20;;;;;;;;;;2032546;29;20040;-96
2023/06/27 04:06:48;;;;;;;13.55;5.57;;;;;;;;;;2032664;29;20064;-96
2023/06/27 04:08:08;;;;;;;13.27;7.72;;;;;;;;;;2038900;29;20024;-95
2023/06/27 04:09:08;;;;;;;12.20;5.50;;;;;;;;;;2024816;29;20080;-91
2023/06/27 04:10:09;;;;;;;17.70;8.40;;;;;;;;;;2034403;29;20119;-89
2023/06/27 04:11:10;;;;;;;13.13;5.93;;;;;;;;;;2041345;29;20070;-91
2023/06/27 04:12:10;;;;;;;16.25;7.65;;;;;;;;;;2040791;29;20556;-92
2023/06/27 04:13:11;;;;;;;36.50;16.40;;;;;;;;;;2040425;29;20460;-91
2023/06/27 04:14:17;;;;;;;21.02;7.03;;;;;;;;;;2030538;29;20016;-91
2023/06/27 04:15:18;;;;;;;18.65;7.05;;;;;;;;;;2044197;28;20452;-90
2023/06/27 04:16:18;;;;;;;18.42;6.93;;;;;;;;;;2040734;29;20106;-91
2023/06/27 04:17:22;;;;;;;13.43;5.65;;;;;;;;;;1788032;29;10152733;-91
2023/06/27 04:18:23;;;;;;;12.80;6.15;;;;;;;;;;2041619;29;20241;-92
2023/06/27 04:19:24;;;;;;;18.30;6.32;;;;;;;;;;2040630;29;20175;-90
2023/06/27 04:20:24;;;;;;;11.38;5.55;;;;;;;;;;2032999;29;20076;-91
2023/06/27 04:21:25;;;;;;;14.95;5.63;;;;;;;;;;2033052;29;20032;-91
2023/06/27 04:22:25;;;;;;;11.35;5.30;;;;;;;;;;2040610;29;20023;-90
2023/06/27 04:23:26;;;;;;;17.67;6.05;;;;;;;;;;2042920;29;20063;-90
2023/06/27 04:24:26;;;;;;;12.80;5.43;;;;;;;;;;2046968;29;20063;-89
2023/06/27 04:25:31;;;;;;;12.48;5.70;;;;;;;;;;2044611;29;20015;-90
2023/06/27 04:26:31;;;;;;;11.43;5.55;;;;;;;;;;2041789;29;20487;-91
2023/06/27 04:27:32;;;;;;;10.98;5.85;;;;;;;;;;2041032;29;20031;-91
2023/06/27 04:28:32;;;;;;;16.40;5.90;;;;;;;;;;2032964;29;20051;-91
2023/06/27 04:29:33;;;;;;;20.08;6.03;;;;;;;;;;2033010;29;20024;-91
2023/06/27 04:30:33;;;;;;;14.68;5.88;;;;;;;;;;2040744;29;20126;-91
2023/06/27 04:31:34;;;;;;;10.00;5.72;;;;;;;;;;2040867;29;20024;-92
2023/06/27 04:32:37;;;;;;;13.70;6.00;;;;;;;;;;2033066;29;20028;-92
2023/06/27 04:33:39;;;;;;;10.00;6.03;;;;;;;;;;2033458;29;20454;-90
2023/06/27 04:34:40;;;;;;;12.13;5.32;;;;;;;;;;2040926;29;20074;-91
2023/06/27 04:35:40;;;;;;;10.93;5.25;;;;;;;;;;2040802;29;20043;-91
2023/06/27 04:36:41;;;;;;;11.98;4.80;;;;;;;;;;2032891;29;20032;-92
2023/06/27 04:37:42;;;;;;;14.10;5.32;;;;;;;;;;2041076;29;20103;-92
2023/06/27 04:38:44;;;;;;;12.43;5.53;;;;;;;;;;2041310;29;20023;-91
2023/06/27 04:39:45;;;;;;;12.90;5.30;;;;;;;;;;2040619;29;20090;-92
2023/06/27 04:40:47;;;;;;;17.80;6.03;;;;;;;;;;2032663;29;20090;-91
2023/06/27 04:41:48;;;;;;;9.23;4.93;;;;;;;;;;2042298;29;20051;-91
2023/06/27 04:42:48;;;;;;;12.18;5.00;;;;;;;;;;2041420;29;20034;-90
2023/06/27 04:43:49;;;;;;;12.30;5.97;;;;;;;;;;2032574;29;20028;-90
2023/06/27 04:44:52;;;;;;;8.60;4.80;;;;;;;;;;2040643;29;20474;-89
2023/06/27 04:45:54;;;;;;;11.65;4.57;;;;;;;;;;2041627;28;20028;-91
2023/06/27 04:46:55;;;;;;;9.82;4.57;;;;;;;;;;2041500;28;20028;-92
2023/06/27 04:47:56;;;;;;;16.38;4.72;;;;;;;;;;2041370;29;20024;-90
2023/06/27 04:49:00;;;;;;;7.57;5.15;;;;;;;;;;2043002;29;20097;-91
2023/06/27 04:50:01;;;;;;;13.48;4.72;;;;;;;;;;2042339;29;20122;-91
2023/06/27 04:51:01;;;;;;;8.00;4.82;;;;;;;;;;2033820;29;20460;-90
2023/06/27 04:52:02;;;;;;;11.40;4.28;;;;;;;;;;2034178;29;20024;-91
2023/06/27 04:53:05;;;;;;;9.45;4.22;;;;;;;;;;2033014;29;20525;-91
2023/06/27 04:54:06;;;;;;;6.78;3.80;;;;;;;;;;2040530;29;20501;-91
2023/06/27 04:55:09;;;;;;;15.93;5.32;;;;;;;;;;2041132;29;20094;-90
2023/06/27 04:56:10;;;;;;;12.00;4.18;;;;;;;;;;2040571;29;20016;-92
2023/06/27 04:57:11;;;;;;;11.63;5.13;;;;;;;;;;2032526;29;20032;-91
2023/06/27 04:58:11;;;;;;;15.70;5.32;;;;;;;;;;2032509;29;20016;-91
2023/06/27 04:59:12;;;;;;;17.30;5.60;;;;;;;;;;2032464;29;20076;-91
2023/06/27 05:00:13;;;;;;;12.27;4.57;;;;;;;;;;2040784;29;20027;-91
2023/06/27 05:01:16;;;;;;;14.93;5.43;;;;;;;;;;2040808;29;20050;-91
2023/06/27 05:02:17;;;;;;;12.30;4.53;;;;;;;;;;2040706;29;20032;-91
2023/06/27 05:03:18;;;;;;;17.75;4.75;;;;;;;;;;2041426;29;20027;-91
2023/06/27 05:04:19;;;;;;;16.30;4.88;;;;;;;;;;2041227;29;20510;-92
2023/06/27 05:05:20;;;;;;;12.55;5.25;;;;;;;;;;2041754;29;20051;-92
2023/06/27 05:06:21;;;;;;;11.77;4.72;;;;;;;;;;2042268;29;20053;-93
2023/06/27 05:07:21;;;;;;;14.27;5.25;;;;;;;;;;2041903;29;20236;-93
2023/06/27 05:08:22;;;;;;;14.70;5.25;;;;;;;;;;2033483;29;20024;-91
2023/06/27 05:09:22;;;;;;;13.10;4.95;;;;;;;;;;2033861;29;20500;-92
2023/06/27 05:10:23;;;;;;;14.45;5.53;;;;;;;;;;2040856;29;20028;-92
2023/06/27 05:11:23;;;;;;;17.63;4.80;;;;;;;;;;2041365;29;20028;-91
2023/06/27 05:12:29;;;;;;;11.82;4.63;;;;;;;;;;2042388;29;20044;-90
2023/06/27 05:13:33;;;;;;;14.43;5.40;;;;;;;;;;1459651;29;10503134;-91
2023/06/27 05:14:41;;;;;;;12.20;5.60;;;;;;;;;;2041568;29;20260;-91
2023/06/27 05:15:42;;;;;;;12.27;4.50;;;;;;;;;;2039546;29;20423;-91
2023/06/27 05:16:42;;;;;;;12.13;4.88;;;;;;;;;;2032993;29;20048;-92
2023/06/27 05:17:51;;;;;;;17.58;4.60;;;;;;;;;;2040703;29;20444;-93
2023/06/27 05:18:54;;;;;;;10.70;4.72;;;;;;;;;;2040557;29;20031;-90
2023/06/27 05:21:15;;;;;;;12.52;5.13;;;;;;;;;;2034133;29;20055;-92
2023/06/27 05:22:18;;;;;;;13.38;5.20;;;;;;;;;;1691569;29;10247112;-93
2023/06/27 05:23:21;;;;;;;13.50;5.00;;;;;;;;;;2041449;28;20488;-93
2023/06/27 05:24:21;;;;;;;11.70;5.78;;;;;;;;;;2041614;28;20032;-93
2023/06/27 05:25:22;;;;;;;8.10;4.75;;;;;;;;;;2040616;29;20051;-92
2023/06/27 05:26:25;;;;;;;8.43;5.53;;;;;;;;;;2040795;29;20044;-93
2023/06/27 05:27:26;;;;;;;17.83;6.68;;;;;;;;;;2041403;29;20027;-91
2023/06/27 05:28:26;;;;;;;10.57;4.90;;;;;;;;;;2041607;29;20500;-91
2023/06/27 05:29:27;;;;;;;6.93;4.40;;;;;;;;;;2040608;29;20023;-92
2023/06/27 05:30:28;;;;;;;13.80;4.75;;;;;;;;;;2032709;29;20028;-91
2023/06/27 05:31:28;;;;;;;11.23;4.80;;;;;;;;;;2041079;29;20023;-92
2023/06/27 05:32:31;;;;;;;13.13;4.43;;;;;;;;;;2041350;29;20423;-92
2023/06/27 05:33:32;;;;;;;9.50;5.38;;;;;;;;;;2041678;28;20558;-91
2023/06/27 05:34:32;;;;;;;9.90;4.85;;;;;;;;;;2041616;29;20055;-92
2023/06/27 05:35:33;;;;;;;11.77;4.28;;;;;;;;;;2041364;29;20134;-91
2023/06/27 05:36:33;;;;;;;15.40;5.00;;;;;;;;;;2040565;29;20558;-91
2023/06/27 05:37:34;;;;;;;10.32;3.83;;;;;;;;;;2040672;29;20034;-92
2023/06/27 05:38:34;;;;;;;8.02;4.30;;;;;;;;;;2040655;29;20527;-92
2023/06/27 05:39:35;;;;;;;8.73;4.10;;;;;;;;;;2040785;29;20090;-92
2023/06/27 05:40:35;;;;;;;5.95;4.63;;;;;;;;;;2040590;29;20079;-92
2023/06/27 05:41:38;;;;;;;7.13;4.32;;;;;;;;;;2032793;29;20485;-92
2023/06/27 05:42:39;;;;;;;7.25;4.60;;;;;;;;;;2040734;29;20047;-91
2023/06/27 05:43:40;;;;;;;8.27;4.57;;;;;;;;;;2040582;29;20030;-93
2023/06/27 05:44:40;;;;;;;8.07;4.40;;;;;;;;;;2040612;29;20233;-90
2023/06/27 05:45:50;;;;;;;6.03;4.32;;;;;;;;;;2032681;29;20032;-91
2023/06/27 05:46:53;;;;;;;7.88;4.32;;;;;;;;;;2040688;29;20114;-92
2023/06/27 05:47:54;;;;;;;10.13;5.45;;;;;;;;;;2040674;29;20055;-92
2023/06/27 05:48:56;;;;;;;6.70;4.38;;;;;;;;;;2040472;29;20032;-91
2023/06/27 05:49:57;;;;;;;9.93;5.22;;;;;;;;;;2040866;29;20028;-92
2023/06/27 05:51:00;;;;;;;8.68;4.55;;;;;;;;;;2041224;29;20026;-91
2023/06/27 05:52:03;;;;;;;7.97;4.93;;;;;;;;;;2041062;29;20030;-91
2023/06/27 05:53:03;;;;;;;6.03;4.43;;;;;;;;;;2040425;29;20115;-92
2023/06/27 05:54:04;;;;;;;7.35;4.80;;;;;;;;;;2040357;29;20027;-92
2023/06/27 05:55:04;;;;;;;6.90;4.63;;;;;;;;;;2040487;29;20127;-92
2023/06/27 05:56:05;;;;;;;8.10;4.95;;;;;;;;;;2032302;29;20027;-91
2023/06/27 05:57:06;;;;;;;7.10;4.93;;;;;;;;;;2032413;29;20016;-91
2023/06/27 05:58:06;;;;;;;11.00;5.18;;;;;;;;;;2040101;29;20048;-92
2023/06/27 05:59:07;;;;;;;7.45;4.93;;;;;;;;;;2040507;29;20022;-92
2023/06/27 06:00:11;;;;;;;7.78;4.30;;;;;;;;;;2041333;29;20035;-91
2023/06/27 06:01:11;;;;;;;9.40;4.50;;;;;;;;;;2041968;28;20035;-92
2023/06/27 06:02:12;;;;;;;6.95;4.30;;;;;;;;;;2043892;28;20032;-92
2023/06/27 06:03:13;;;;;;;8.50;4.65;;;;;;;;;;2050675;28;20083;-93
2023/06/27 06:04:13;;;;;;;6.82;3.83;;;;;;;;;;2050598;28;20007;-92
2023/06/27 06:05:14;;;;;;;8.70;4.70;;;;;;;;;;2050291;28;20079;-92
2023/06/27 06:06:15;;;;;;;7.38;4.13;;;;;;;;;;2046687;29;20059;-92
2023/06/27 06:07:15;;;;;;;6.60;3.92;;;;;;;;;;2038995;29;20028;-92